sensor_id;sensor_type;location;lat;lon;timestamp;temperature;humidity
71237;DHT22;58984;51.960;5.582;2022-07-03T00:01:19;25.80;46.50
71237;DHT22;58984;51.960;5.582;2022-07-03T00:03:44;25.80;46.50
71237;DHT22;58984;51.960;5.582;2022-07-03T00:06:10;25.80;46.50
71237;DHT22;58984;51.960;5.582;2022-07-03T00:08:36;25.80;46.50
71237;DHT22;58984;51.960;5.582;2022-07-03T00:11:02;25.80;46.50
71237;DHT22;58984;51.960;5.582;2022-07-03T00:13:28;25.70;46.50
71237;DHT22;58984;51.960;5.582;2022-07-03T00:15:53;25.70;46.70
71237;DHT22;58984;51.960;5.582;2022-07-03T00:18:19;25.70;46.50
71237;DHT22;58984;51.960;5.582;2022-07-03T00:20:47;25.70;46.60
71237;DHT22;58984;51.960;5.582;2022-07-03T00:23:16;25.70;46.60
71237;DHT22;58984;51.960;5.582;2022-07-03T00:25:43;25.70;46.60
71237;DHT22;58984;51.960;5.582;2022-07-03T00:28:09;25.70;46.70
71237;DHT22;58984;51.960;5.582;2022-07-03T00:30:35;25.70;46.80
71237;DHT22;58984;51.960;5.582;2022-07-03T00:33:03;25.70;46.90
71237;DHT22;58984;51.960;5.582;2022-07-03T00:35:34;25.60;46.90
71237;DHT22;58984;51.960;5.582;2022-07-03T00:38:01;25.70;47.10
71237;DHT22;58984;51.960;5.582;2022-07-03T00:40:27;25.60;47.10
71237;DHT22;58984;51.960;5.582;2022-07-03T00:42:53;25.60;47.10
71237;DHT22;58984;51.960;5.582;2022-07-03T00:45:20;25.60;47.20
71237;DHT22;58984;51.960;5.582;2022-07-03T00:47:47;25.60;47.20
71237;DHT22;58984;51.960;5.582;2022-07-03T00:50:13;25.60;47.20
71237;DHT22;58984;51.960;5.582;2022-07-03T00:52:45;25.60;47.20
71237;DHT22;58984;51.960;5.582;2022-07-03T00:55:15;25.50;47.20
71237;DHT22;58984;51.960;5.582;2022-07-03T00:57:47;25.50;47.20
71237;DHT22;58984;51.960;5.582;2022-07-03T01:00:17;25.50;47.30
71237;DHT22;58984;51.960;5.582;2022-07-03T01:05:11;25.60;47.40
71237;DHT22;58984;51.960;5.582;2022-07-03T01:07:51;25.50;47.30
71237;DHT22;58984;51.960;5.582;2022-07-03T01:13:17;25.50;47.30
71237;DHT22;58984;51.960;5.582;2022-07-03T01:15:57;25.40;47.20
71237;DHT22;58984;51.960;5.582;2022-07-03T01:26:46;25.40;47.20
71237;DHT22;58984;51.960;5.582;2022-07-03T01:29:22;25.40;47.30
71237;DHT22;58984;51.960;5.582;2022-07-03T01:31:48;25.20;47.20
71237;DHT22;58984;51.960;5.582;2022-07-03T01:34:18;25.30;47.20
71237;DHT22;58984;51.960;5.582;2022-07-03T01:36:47;25.30;47.20
71237;DHT22;58984;51.960;5.582;2022-07-03T01:39:16;25.30;47.10
71237;DHT22;58984;51.960;5.582;2022-07-03T01:41:44;25.20;47.00
71237;DHT22;58984;51.960;5.582;2022-07-03T01:44:11;25.20;46.90
71237;DHT22;58984;51.960;5.582;2022-07-03T01:46:40;25.30;46.90
71237;DHT22;58984;51.960;5.582;2022-07-03T01:49:12;25.20;46.90
71237;DHT22;58984;51.960;5.582;2022-07-03T01:51:39;25.20;46.80
71237;DHT22;58984;51.960;5.582;2022-07-03T01:54:10;25.20;46.80
71237;DHT22;58984;51.960;5.582;2022-07-03T01:56:36;25.20;46.70
71237;DHT22;58984;51.960;5.582;2022-07-03T01:59:02;25.20;46.70
71237;DHT22;58984;51.960;5.582;2022-07-03T02:06:50;25.10;46.60
71237;DHT22;58984;51.960;5.582;2022-07-03T02:09:23;25.10;46.50
71237;DHT22;58984;51.960;5.582;2022-07-03T02:11:50;25.10;46.50
71237;DHT22;58984;51.960;5.582;2022-07-03T02:14:16;25.20;46.50
71237;DHT22;58984;51.960;5.582;2022-07-03T02:17:07;25.10;46.40
71237;DHT22;58984;51.960;5.582;2022-07-03T02:20:00;25.00;46.50
71237;DHT22;58984;51.960;5.582;2022-07-03T02:25:07;25.00;46.30
71237;DHT22;58984;51.960;5.582;2022-07-03T02:27:42;24.90;46.30
71237;DHT22;58984;51.960;5.582;2022-07-03T02:30:08;24.90;46.40
71237;DHT22;58984;51.960;5.582;2022-07-03T02:32:49;25.00;46.40
71237;DHT22;58984;51.960;5.582;2022-07-03T02:35:25;24.90;46.40
71237;DHT22;58984;51.960;5.582;2022-07-03T02:38:01;24.90;46.40
71237;DHT22;58984;51.960;5.582;2022-07-03T02:43:21;24.90;46.30
71237;DHT22;58984;51.960;5.582;2022-07-03T02:45:52;24.80;46.40
71237;DHT22;58984;51.960;5.582;2022-07-03T02:48:34;24.90;46.20
71237;DHT22;58984;51.960;5.582;2022-07-03T02:51:08;24.80;46.30
71237;DHT22;58984;51.960;5.582;2022-07-03T02:53:44;24.90;46.30
71237;DHT22;58984;51.960;5.582;2022-07-03T02:56:23;24.80;46.30
71237;DHT22;58984;51.960;5.582;2022-07-03T02:59:03;24.80;46.20
71237;DHT22;58984;51.960;5.582;2022-07-03T03:04:17;24.90;46.40
71237;DHT22;58984;51.960;5.582;2022-07-03T03:06:55;24.70;46.40
71237;DHT22;58984;51.960;5.582;2022-07-03T03:09:39;24.70;46.30
71237;DHT22;58984;51.960;5.582;2022-07-03T03:12:06;24.70;46.50
71237;DHT22;58984;51.960;5.582;2022-07-03T03:14:39;24.80;46.60
71237;DHT22;58984;51.960;5.582;2022-07-03T03:17:09;24.70;46.70
71237;DHT22;58984;51.960;5.582;2022-07-03T03:19:40;24.80;46.80
71237;DHT22;58984;51.960;5.582;2022-07-03T03:22:09;24.70;46.90
71237;DHT22;58984;51.960;5.582;2022-07-03T03:24:40;24.90;47.00
71237;DHT22;58984;51.960;5.582;2022-07-03T03:27:05;25.00;46.70
71237;DHT22;58984;51.960;5.582;2022-07-03T03:29:31;25.10;46.60
71237;DHT22;58984;51.960;5.582;2022-07-03T03:31:56;25.20;46.60
71237;DHT22;58984;51.960;5.582;2022-07-03T03:34:22;25.20;46.50
71237;DHT22;58984;51.960;5.582;2022-07-03T03:36:47;25.20;46.60
71237;DHT22;58984;51.960;5.582;2022-07-03T03:39:13;25.20;46.50
71237;DHT22;58984;51.960;5.582;2022-07-03T03:41:39;25.20;46.50
71237;DHT22;58984;51.960;5.582;2022-07-03T03:44:04;25.20;46.50
71237;DHT22;58984;51.960;5.582;2022-07-03T03:46:30;25.20;46.60
71237;DHT22;58984;51.960;5.582;2022-07-03T03:48:55;25.20;46.60
71237;DHT22;58984;51.960;5.582;2022-07-03T03:51:21;25.20;46.60
71237;DHT22;58984;51.960;5.582;2022-07-03T03:53:46;25.20;46.60
71237;DHT22;58984;51.960;5.582;2022-07-03T03:56:12;25.20;46.60
71237;DHT22;58984;51.960;5.582;2022-07-03T03:58:40;25.20;46.60
71237;DHT22;58984;51.960;5.582;2022-07-03T04:01:06;25.20;46.60
71237;DHT22;58984;51.960;5.582;2022-07-03T04:03:32;25.10;46.60
71237;DHT22;58984;51.960;5.582;2022-07-03T04:05:58;25.10;46.60
71237;DHT22;58984;51.960;5.582;2022-07-03T04:08:24;25.10;46.60
71237;DHT22;58984;51.960;5.582;2022-07-03T04:10:50;25.20;46.70
71237;DHT22;58984;51.960;5.582;2022-07-03T04:13:16;25.10;46.60
71237;DHT22;58984;51.960;5.582;2022-07-03T04:15:42;25.20;46.80
71237;DHT22;58984;51.960;5.582;2022-07-03T04:18:07;25.10;46.70
71237;DHT22;58984;51.960;5.582;2022-07-03T04:20:33;25.10;46.80
71237;DHT22;58984;51.960;5.582;2022-07-03T04:22:59;25.10;46.80
71237;DHT22;58984;51.960;5.582;2022-07-03T04:25:24;25.10;46.80
71237;DHT22;58984;51.960;5.582;2022-07-03T04:27:50;25.10;46.90
71237;DHT22;58984;51.960;5.582;2022-07-03T04:30:15;25.10;46.90
71237;DHT22;58984;51.960;5.582;2022-07-03T04:32:41;25.10;46.90
71237;DHT22;58984;51.960;5.582;2022-07-03T04:35:06;25.10;46.90
71237;DHT22;58984;51.960;5.582;2022-07-03T04:37:32;25.10;46.90
71237;DHT22;58984;51.960;5.582;2022-07-03T04:39:57;25.10;46.90
71237;DHT22;58984;51.960;5.582;2022-07-03T04:42:23;25.10;47.00
71237;DHT22;58984;51.960;5.582;2022-07-03T04:44:48;25.00;46.90
71237;DHT22;58984;51.960;5.582;2022-07-03T04:47:14;25.00;47.00
71237;DHT22;58984;51.960;5.582;2022-07-03T04:49:40;25.00;47.00
71237;DHT22;58984;51.960;5.582;2022-07-03T04:52:06;25.00;47.00
71237;DHT22;58984;51.960;5.582;2022-07-03T04:54:31;25.00;47.00
71237;DHT22;58984;51.960;5.582;2022-07-03T04:56:57;25.00;47.00
71237;DHT22;58984;51.960;5.582;2022-07-03T04:59:22;25.00;47.00
71237;DHT22;58984;51.960;5.582;2022-07-03T05:01:47;25.00;47.10
71237;DHT22;58984;51.960;5.582;2022-07-03T05:04:15;25.00;47.10
71237;DHT22;58984;51.960;5.582;2022-07-03T05:06:40;25.00;47.10
71237;DHT22;58984;51.960;5.582;2022-07-03T05:09:06;25.00;47.10
71237;DHT22;58984;51.960;5.582;2022-07-03T05:11:31;25.00;47.20
71237;DHT22;58984;51.960;5.582;2022-07-03T05:13:57;25.00;47.20
71237;DHT22;58984;51.960;5.582;2022-07-03T05:16:22;24.90;47.10
71237;DHT22;58984;51.960;5.582;2022-07-03T05:18:48;25.00;47.20
71237;DHT22;58984;51.960;5.582;2022-07-03T05:21:13;25.00;47.30
71237;DHT22;58984;51.960;5.582;2022-07-03T05:23:39;25.00;47.30
71237;DHT22;58984;51.960;5.582;2022-07-03T05:26:04;25.00;47.30
71237;DHT22;58984;51.960;5.582;2022-07-03T05:28:29;24.90;47.30
71237;DHT22;58984;51.960;5.582;2022-07-03T05:30:55;24.90;47.30
71237;DHT22;58984;51.960;5.582;2022-07-03T05:33:20;24.90;47.30
71237;DHT22;58984;51.960;5.582;2022-07-03T05:35:46;24.90;47.30
71237;DHT22;58984;51.960;5.582;2022-07-03T05:38:11;24.90;47.30
71237;DHT22;58984;51.960;5.582;2022-07-03T05:40:37;24.90;47.30
71237;DHT22;58984;51.960;5.582;2022-07-03T05:43:02;24.90;47.30
71237;DHT22;58984;51.960;5.582;2022-07-03T05:45:28;24.90;47.40
71237;DHT22;58984;51.960;5.582;2022-07-03T05:47:54;24.90;47.40
71237;DHT22;58984;51.960;5.582;2022-07-03T05:50:19;24.90;47.50
71237;DHT22;58984;51.960;5.582;2022-07-03T05:52:44;24.90;47.60
71237;DHT22;58984;51.960;5.582;2022-07-03T05:55:10;24.90;47.60
71237;DHT22;58984;51.960;5.582;2022-07-03T05:57:35;24.90;47.60
71237;DHT22;58984;51.960;5.582;2022-07-03T06:00:01;24.90;47.60
71237;DHT22;58984;51.960;5.582;2022-07-03T06:02:27;24.90;47.60
71237;DHT22;58984;51.960;5.582;2022-07-03T06:04:52;24.90;47.70
71237;DHT22;58984;51.960;5.582;2022-07-03T06:07:18;24.90;47.70
71237;DHT22;58984;51.960;5.582;2022-07-03T06:09:43;24.90;47.70
71237;DHT22;58984;51.960;5.582;2022-07-03T06:12:09;24.90;47.70
71237;DHT22;58984;51.960;5.582;2022-07-03T06:14:35;24.90;47.70
71237;DHT22;58984;51.960;5.582;2022-07-03T06:17:00;24.90;47.70
71237;DHT22;58984;51.960;5.582;2022-07-03T06:19:26;24.90;47.70
71237;DHT22;58984;51.960;5.582;2022-07-03T06:21:51;24.90;47.70
71237;DHT22;58984;51.960;5.582;2022-07-03T06:24:17;24.90;47.70
71237;DHT22;58984;51.960;5.582;2022-07-03T06:26:42;24.90;47.80
71237;DHT22;58984;51.960;5.582;2022-07-03T06:29:08;24.90;47.80
71237;DHT22;58984;51.960;5.582;2022-07-03T06:31:36;24.90;47.80
71237;DHT22;58984;51.960;5.582;2022-07-03T06:34:02;24.90;47.80
71237;DHT22;58984;51.960;5.582;2022-07-03T06:36:27;24.90;47.80
71237;DHT22;58984;51.960;5.582;2022-07-03T06:38:53;24.90;47.90
71237;DHT22;58984;51.960;5.582;2022-07-03T06:41:18;24.90;47.90
71237;DHT22;58984;51.960;5.582;2022-07-03T06:43:44;24.90;48.60
71237;DHT22;58984;51.960;5.582;2022-07-03T06:46:09;24.90;47.90
71237;DHT22;58984;51.960;5.582;2022-07-03T06:48:35;24.90;47.90
71237;DHT22;58984;51.960;5.582;2022-07-03T06:51:00;24.90;47.80
71237;DHT22;58984;51.960;5.582;2022-07-03T06:53:25;25.00;47.90
71237;DHT22;58984;51.960;5.582;2022-07-03T06:55:51;25.00;48.00
71237;DHT22;58984;51.960;5.582;2022-07-03T06:58:16;25.00;47.90
71237;DHT22;58984;51.960;5.582;2022-07-03T07:00:42;24.90;47.90
71237;DHT22;58984;51.960;5.582;2022-07-03T07:03:08;25.00;48.00
71237;DHT22;58984;51.960;5.582;2022-07-03T07:05:33;25.00;47.90
71237;DHT22;58984;51.960;5.582;2022-07-03T07:07:59;25.00;47.90
71237;DHT22;58984;51.960;5.582;2022-07-03T07:10:24;25.00;47.90
71237;DHT22;58984;51.960;5.582;2022-07-03T07:12:50;25.00;47.90
71237;DHT22;58984;51.960;5.582;2022-07-03T07:15:15;25.10;48.00
71237;DHT22;58984;51.960;5.582;2022-07-03T07:17:41;25.10;48.00
71237;DHT22;58984;51.960;5.582;2022-07-03T07:20:06;25.10;48.00
71237;DHT22;58984;51.960;5.582;2022-07-03T07:22:32;25.10;48.00
71237;DHT22;58984;51.960;5.582;2022-07-03T07:24:57;25.10;48.00
71237;DHT22;58984;51.960;5.582;2022-07-03T07:27:23;25.20;47.90
71237;DHT22;58984;51.960;5.582;2022-07-03T07:29:48;25.20;47.90
71237;DHT22;58984;51.960;5.582;2022-07-03T07:32:14;25.20;47.90
71237;DHT22;58984;51.960;5.582;2022-07-03T07:34:39;25.20;47.90
71237;DHT22;58984;51.960;5.582;2022-07-03T07:37:05;25.20;47.90
71237;DHT22;58984;51.960;5.582;2022-07-03T07:39:30;25.20;47.90
71237;DHT22;58984;51.960;5.582;2022-07-03T07:41:56;25.20;47.80
71237;DHT22;58984;51.960;5.582;2022-07-03T07:44:21;25.30;47.90
71237;DHT22;58984;51.960;5.582;2022-07-03T07:46:47;25.30;47.90
71237;DHT22;58984;51.960;5.582;2022-07-03T07:49:12;25.30;47.90
71237;DHT22;58984;51.960;5.582;2022-07-03T07:51:38;25.30;47.90
71237;DHT22;58984;51.960;5.582;2022-07-03T07:54:03;25.30;48.00
71237;DHT22;58984;51.960;5.582;2022-07-03T07:56:29;25.30;48.00
71237;DHT22;58984;51.960;5.582;2022-07-03T07:58:54;25.30;48.70
71237;DHT22;58984;51.960;5.582;2022-07-03T08:01:20;25.40;48.10
71237;DHT22;58984;51.960;5.582;2022-07-03T08:04:04;25.40;48.80
71237;DHT22;58984;51.960;5.582;2022-07-03T08:06:48;25.40;48.20
71237;DHT22;58984;51.960;5.582;2022-07-03T08:09:14;25.40;48.20
71237;DHT22;58984;51.960;5.582;2022-07-03T08:11:40;25.40;48.10
71237;DHT22;58984;51.960;5.582;2022-07-03T08:14:05;25.50;48.20
71237;DHT22;58984;51.960;5.582;2022-07-03T08:16:36;25.50;48.10
71237;DHT22;58984;51.960;5.582;2022-07-03T08:19:03;25.50;48.00
71237;DHT22;58984;51.960;5.582;2022-07-03T08:21:29;25.60;48.10
71237;DHT22;58984;51.960;5.582;2022-07-03T08:23:54;25.60;48.10
71237;DHT22;58984;51.960;5.582;2022-07-03T08:26:20;25.70;48.20
71237;DHT22;58984;51.960;5.582;2022-07-03T08:28:45;25.70;48.30
71237;DHT22;58984;51.960;5.582;2022-07-03T08:31:10;25.80;48.40
71237;DHT22;58984;51.960;5.582;2022-07-03T08:33:36;25.80;48.40
71237;DHT22;58984;51.960;5.582;2022-07-03T08:36:01;25.80;48.40
71237;DHT22;58984;51.960;5.582;2022-07-03T08:38:29;25.90;48.40
71237;DHT22;58984;51.960;5.582;2022-07-03T08:40:57;25.90;48.50
71237;DHT22;58984;51.960;5.582;2022-07-03T08:43:23;26.00;48.40
71237;DHT22;58984;51.960;5.582;2022-07-03T08:45:48;26.00;48.40
71237;DHT22;58984;51.960;5.582;2022-07-03T08:48:14;26.10;48.50
71237;DHT22;58984;51.960;5.582;2022-07-03T08:50:39;26.10;48.50
71237;DHT22;58984;51.960;5.582;2022-07-03T08:53:06;26.20;48.50
71237;DHT22;58984;51.960;5.582;2022-07-03T08:55:32;26.20;48.60
71237;DHT22;58984;51.960;5.582;2022-07-03T08:57:58;26.20;48.60
71237;DHT22;58984;51.960;5.582;2022-07-03T09:00:23;26.30;48.60
71237;DHT22;58984;51.960;5.582;2022-07-03T09:02:51;26.30;48.50
71237;DHT22;58984;51.960;5.582;2022-07-03T09:05:17;26.30;48.50
71237;DHT22;58984;51.960;5.582;2022-07-03T09:07:43;26.40;48.60
71237;DHT22;58984;51.960;5.582;2022-07-03T09:10:13;26.40;48.60
71237;DHT22;58984;51.960;5.582;2022-07-03T09:12:39;26.40;48.60
71237;DHT22;58984;51.960;5.582;2022-07-03T09:15:05;26.50;48.70
71237;DHT22;58984;51.960;5.582;2022-07-03T09:17:31;26.60;48.70
71237;DHT22;58984;51.960;5.582;2022-07-03T09:20:04;26.60;48.70
71237;DHT22;58984;51.960;5.582;2022-07-03T09:22:31;26.60;48.80
71237;DHT22;58984;51.960;5.582;2022-07-03T09:25:09;26.70;48.80
71237;DHT22;58984;51.960;5.582;2022-07-03T09:27:48;26.70;48.80
71237;DHT22;58984;51.960;5.582;2022-07-03T09:30:14;26.70;48.80
71237;DHT22;58984;51.960;5.582;2022-07-03T09:32:43;26.80;48.80
71237;DHT22;58984;51.960;5.582;2022-07-03T09:35:16;26.80;48.80
71237;DHT22;58984;51.960;5.582;2022-07-03T09:37:50;26.90;48.90
71237;DHT22;58984;51.960;5.582;2022-07-03T09:40:16;26.90;48.90
71237;DHT22;58984;51.960;5.582;2022-07-03T09:42:56;27.00;48.90
71237;DHT22;58984;51.960;5.582;2022-07-03T09:45:21;27.10;49.00
71237;DHT22;58984;51.960;5.582;2022-07-03T09:47:47;27.10;49.00
71237;DHT22;58984;51.960;5.582;2022-07-03T09:50:12;27.20;49.00
71237;DHT22;58984;51.960;5.582;2022-07-03T09:52:40;27.20;48.90
71237;DHT22;58984;51.960;5.582;2022-07-03T09:57:31;27.30;48.80
71237;DHT22;58984;51.960;5.582;2022-07-03T10:00:07;27.30;48.80
71237;DHT22;58984;51.960;5.582;2022-07-03T10:02:33;27.40;48.90
71237;DHT22;58984;51.960;5.582;2022-07-03T10:05:10;27.50;48.90
71237;DHT22;58984;51.960;5.582;2022-07-03T10:07:48;27.50;48.90
71237;DHT22;58984;51.960;5.582;2022-07-03T10:10:14;27.60;48.90
71237;DHT22;58984;51.960;5.582;2022-07-03T10:12:40;27.60;48.70
71237;DHT22;58984;51.960;5.582;2022-07-03T10:15:05;27.60;48.80
71237;DHT22;58984;51.960;5.582;2022-07-03T10:17:31;27.70;48.80
71237;DHT22;58984;51.960;5.582;2022-07-03T10:19:57;27.70;48.70
71237;DHT22;58984;51.960;5.582;2022-07-03T10:22:23;27.70;48.60
71237;DHT22;58984;51.960;5.582;2022-07-03T10:24:49;27.80;48.80
71237;DHT22;58984;51.960;5.582;2022-07-03T10:27:15;27.80;48.70
71237;DHT22;58984;51.960;5.582;2022-07-03T10:29:41;27.90;48.60
71237;DHT22;58984;51.960;5.582;2022-07-03T10:32:07;27.90;48.70
71237;DHT22;58984;51.960;5.582;2022-07-03T10:34:33;27.90;48.70
71237;DHT22;58984;51.960;5.582;2022-07-03T10:37:00;27.90;48.80
71237;DHT22;58984;51.960;5.582;2022-07-03T10:39:30;28.00;48.80
71237;DHT22;58984;51.960;5.582;2022-07-03T10:41:58;28.00;48.90
71237;DHT22;58984;51.960;5.582;2022-07-03T10:44:50;28.10;48.80
71237;DHT22;58984;51.960;5.582;2022-07-03T10:50:00;28.10;48.80
71237;DHT22;58984;51.960;5.582;2022-07-03T10:52:26;28.20;48.90
71237;DHT22;58984;51.960;5.582;2022-07-03T10:54:52;28.20;49.00
71237;DHT22;58984;51.960;5.582;2022-07-03T10:57:21;28.30;49.00
71237;DHT22;58984;51.960;5.582;2022-07-03T11:02:32;28.40;48.90
71237;DHT22;58984;51.960;5.582;2022-07-03T11:20:30;28.50;48.90
71237;DHT22;58984;51.960;5.582;2022-07-03T11:25:39;28.60;48.90
71237;DHT22;58984;51.960;5.582;2022-07-03T11:28:05;28.60;48.90
71237;DHT22;58984;51.960;5.582;2022-07-03T11:30:30;28.70;48.80
71237;DHT22;58984;51.960;5.582;2022-07-03T11:32:57;28.70;48.80
71237;DHT22;58984;51.960;5.582;2022-07-03T11:38:07;28.80;48.70
71237;DHT22;58984;51.960;5.582;2022-07-03T11:40:33;28.80;48.70
71237;DHT22;58984;51.960;5.582;2022-07-03T11:43:01;28.80;48.60
71237;DHT22;58984;51.960;5.582;2022-07-03T11:45:29;28.80;48.40
71237;DHT22;58984;51.960;5.582;2022-07-03T11:47:55;28.90;48.50
71237;DHT22;58984;51.960;5.582;2022-07-03T11:50:21;28.90;48.50
71237;DHT22;58984;51.960;5.582;2022-07-03T11:53:00;28.90;48.40
71237;DHT22;58984;51.960;5.582;2022-07-03T11:55:26;28.90;48.10
71237;DHT22;58984;51.960;5.582;2022-07-03T11:57:52;28.90;47.90
71237;DHT22;58984;51.960;5.582;2022-07-03T12:00:18;28.90;47.80
71237;DHT22;58984;51.960;5.582;2022-07-03T12:02:49;28.90;47.70
71237;DHT22;58984;51.960;5.582;2022-07-03T12:05:15;28.90;47.70
71237;DHT22;58984;51.960;5.582;2022-07-03T12:07:41;28.90;47.80
71237;DHT22;58984;51.960;5.582;2022-07-03T12:10:06;28.90;47.90
71237;DHT22;58984;51.960;5.582;2022-07-03T12:12:36;28.90;48.00
71237;DHT22;58984;51.960;5.582;2022-07-03T12:15:02;28.90;47.90
71237;DHT22;58984;51.960;5.582;2022-07-03T12:17:27;28.90;47.90
71237;DHT22;58984;51.960;5.582;2022-07-03T12:19:54;28.90;47.80
71237;DHT22;58984;51.960;5.582;2022-07-03T12:27:26;29.00;47.80
71237;DHT22;58984;51.960;5.582;2022-07-03T12:29:52;29.00;47.80
71237;DHT22;58984;51.960;5.582;2022-07-03T12:32:18;29.10;47.90
71237;DHT22;58984;51.960;5.582;2022-07-03T12:34:43;29.10;47.80
71237;DHT22;58984;51.960;5.582;2022-07-03T12:37:09;29.20;47.90
71237;DHT22;58984;51.960;5.582;2022-07-03T12:39:41;29.10;47.80
71237;DHT22;58984;51.960;5.582;2022-07-03T12:42:16;29.20;47.60
71237;DHT22;58984;51.960;5.582;2022-07-03T12:44:42;29.20;47.50
71237;DHT22;58984;51.960;5.582;2022-07-03T12:47:07;29.20;47.40
71237;DHT22;58984;51.960;5.582;2022-07-03T12:49:33;29.20;47.30
71237;DHT22;58984;51.960;5.582;2022-07-03T12:51:58;29.20;47.30
71237;DHT22;58984;51.960;5.582;2022-07-03T12:57:02;29.10;46.80
71237;DHT22;58984;51.960;5.582;2022-07-03T13:00:08;29.20;46.60
71237;DHT22;58984;51.960;5.582;2022-07-03T13:02:37;29.10;46.80
71237;DHT22;58984;51.960;5.582;2022-07-03T13:05:13;29.10;46.60
71237;DHT22;58984;51.960;5.582;2022-07-03T13:07:39;29.10;46.40
71237;DHT22;58984;51.960;5.582;2022-07-03T13:10:05;29.10;46.10
71237;DHT22;58984;51.960;5.582;2022-07-03T13:12:31;29.10;46.10
71237;DHT22;58984;51.960;5.582;2022-07-03T13:14:57;29.10;46.30
71237;DHT22;58984;51.960;5.582;2022-07-03T13:17:22;29.10;46.30
71237;DHT22;58984;51.960;5.582;2022-07-03T13:19:48;29.10;46.30
71237;DHT22;58984;51.960;5.582;2022-07-03T13:22:13;29.10;45.60
71237;DHT22;58984;51.960;5.582;2022-07-03T13:24:39;29.00;45.30
71237;DHT22;58984;51.960;5.582;2022-07-03T13:27:04;29.00;45.30
71237;DHT22;58984;51.960;5.582;2022-07-03T13:29:29;29.00;45.30
71237;DHT22;58984;51.960;5.582;2022-07-03T13:31:55;29.00;45.50
71237;DHT22;58984;51.960;5.582;2022-07-03T13:34:21;29.00;45.90
71237;DHT22;58984;51.960;5.582;2022-07-03T13:36:46;29.00;45.90
71237;DHT22;58984;51.960;5.582;2022-07-03T13:39:14;29.00;46.00
71237;DHT22;58984;51.960;5.582;2022-07-03T13:41:39;29.10;46.10
71237;DHT22;58984;51.960;5.582;2022-07-03T13:44:05;29.10;46.20
71237;DHT22;58984;51.960;5.582;2022-07-03T13:46:30;29.10;46.20
71237;DHT22;58984;51.960;5.582;2022-07-03T13:48:56;29.10;46.30
71237;DHT22;58984;51.960;5.582;2022-07-03T13:51:21;29.10;46.30
71237;DHT22;58984;51.960;5.582;2022-07-03T13:53:47;29.10;46.30
71237;DHT22;58984;51.960;5.582;2022-07-03T13:56:16;29.10;46.30
71237;DHT22;58984;51.960;5.582;2022-07-03T13:58:42;29.10;46.30
71237;DHT22;58984;51.960;5.582;2022-07-03T14:01:07;29.10;46.40
71237;DHT22;58984;51.960;5.582;2022-07-03T14:03:33;29.10;46.30
71237;DHT22;58984;51.960;5.582;2022-07-03T14:05:58;29.10;46.20
71237;DHT22;58984;51.960;5.582;2022-07-03T14:08:24;29.10;46.10
71237;DHT22;58984;51.960;5.582;2022-07-03T14:10:49;29.10;46.10
71237;DHT22;58984;51.960;5.582;2022-07-03T14:13:15;29.10;46.10
71237;DHT22;58984;51.960;5.582;2022-07-03T14:15:40;29.00;46.00
71237;DHT22;58984;51.960;5.582;2022-07-03T14:18:06;29.00;46.10
71237;DHT22;58984;51.960;5.582;2022-07-03T14:20:31;29.00;46.00
71237;DHT22;58984;51.960;5.582;2022-07-03T14:22:57;29.00;46.10
71237;DHT22;58984;51.960;5.582;2022-07-03T14:25:22;29.00;46.20
71237;DHT22;58984;51.960;5.582;2022-07-03T14:27:48;29.00;46.20
71237;DHT22;58984;51.960;5.582;2022-07-03T14:30:32;29.00;46.20
71237;DHT22;58984;51.960;5.582;2022-07-03T14:33:16;29.00;46.30
71237;DHT22;58984;51.960;5.582;2022-07-03T14:35:41;29.00;46.30
71237;DHT22;58984;51.960;5.582;2022-07-03T14:38:07;29.00;46.30
71237;DHT22;58984;51.960;5.582;2022-07-03T14:40:32;29.00;46.40
71237;DHT22;58984;51.960;5.582;2022-07-03T14:42:58;29.00;46.40
71237;DHT22;58984;51.960;5.582;2022-07-03T14:45:24;29.00;46.40
71237;DHT22;58984;51.960;5.582;2022-07-03T14:47:49;29.00;46.30
71237;DHT22;58984;51.960;5.582;2022-07-03T14:50:15;29.00;46.40
71237;DHT22;58984;51.960;5.582;2022-07-03T14:52:40;29.00;46.30
71237;DHT22;58984;51.960;5.582;2022-07-03T14:55:06;29.00;46.20
71237;DHT22;58984;51.960;5.582;2022-07-03T15:05:15;29.00;46.20
71237;DHT22;58984;51.960;5.582;2022-07-03T15:07:42;28.90;46.30
71237;DHT22;58984;51.960;5.582;2022-07-03T15:10:14;28.90;46.20
71237;DHT22;58984;51.960;5.582;2022-07-03T15:12:45;28.90;46.20
71237;DHT22;58984;51.960;5.582;2022-07-03T15:15:13;28.90;46.10
71237;DHT22;58984;51.960;5.582;2022-07-03T15:17:40;28.90;46.10
71237;DHT22;58984;51.960;5.582;2022-07-03T15:20:06;29.00;46.10
71237;DHT22;58984;51.960;5.582;2022-07-03T15:22:32;28.90;45.60
71237;DHT22;58984;51.960;5.582;2022-07-03T15:24:59;28.90;45.70
71237;DHT22;58984;51.960;5.582;2022-07-03T15:27:25;28.90;45.60
71237;DHT22;58984;51.960;5.582;2022-07-03T15:29:52;28.90;45.40
71237;DHT22;58984;51.960;5.582;2022-07-03T15:32:18;28.90;45.70
71237;DHT22;58984;51.960;5.582;2022-07-03T15:34:44;28.90;45.60
71237;DHT22;58984;51.960;5.582;2022-07-03T15:37:24;28.90;45.60
71237;DHT22;58984;51.960;5.582;2022-07-03T15:40:10;28.90;45.20
71237;DHT22;58984;51.960;5.582;2022-07-03T15:50:46;28.90;45.20
71237;DHT22;58984;51.960;5.582;2022-07-03T15:53:21;28.80;45.20
71237;DHT22;58984;51.960;5.582;2022-07-03T15:55:49;28.80;45.10
71237;DHT22;58984;51.960;5.582;2022-07-03T15:58:19;28.80;45.20
71237;DHT22;58984;51.960;5.582;2022-07-03T16:00:46;28.80;45.10
71237;DHT22;58984;51.960;5.582;2022-07-03T16:03:35;28.80;45.20
71237;DHT22;58984;51.960;5.582;2022-07-03T16:06:04;28.80;45.10
71237;DHT22;58984;51.960;5.582;2022-07-03T16:08:31;28.80;45.10
71237;DHT22;58984;51.960;5.582;2022-07-03T16:10:56;28.70;45.10
71237;DHT22;58984;51.960;5.582;2022-07-03T16:13:25;28.70;45.10
71237;DHT22;58984;51.960;5.582;2022-07-03T16:15:51;28.70;45.10
71237;DHT22;58984;51.960;5.582;2022-07-03T16:18:17;28.70;45.10
71237;DHT22;58984;51.960;5.582;2022-07-03T16:20:43;28.70;45.10
71237;DHT22;58984;51.960;5.582;2022-07-03T16:23:10;28.70;45.10
71237;DHT22;58984;51.960;5.582;2022-07-03T16:25:36;28.70;45.10
71237;DHT22;58984;51.960;5.582;2022-07-03T16:28:03;28.70;45.10
71237;DHT22;58984;51.960;5.582;2022-07-03T16:30:30;28.70;45.10
71237;DHT22;58984;51.960;5.582;2022-07-03T16:32:56;28.60;45.00
71237;DHT22;58984;51.960;5.582;2022-07-03T16:35:25;28.60;45.00
71237;DHT22;58984;51.960;5.582;2022-07-03T16:37:54;28.60;44.80
71237;DHT22;58984;51.960;5.582;2022-07-03T16:40:20;28.60;44.80
71237;DHT22;58984;51.960;5.582;2022-07-03T16:42:46;28.60;44.70
71237;DHT22;58984;51.960;5.582;2022-07-03T16:45:13;28.60;44.60
71237;DHT22;58984;51.960;5.582;2022-07-03T16:47:43;28.50;44.50
71237;DHT22;58984;51.960;5.582;2022-07-03T16:50:13;28.50;44.40
71237;DHT22;58984;51.960;5.582;2022-07-03T16:52:41;28.50;44.30